| time (UTC) | temp F | wind direction | speed knots | gust knots | rain 1hr in | rain 24hr in | rain mn in | humidity % | barometer mb |
| 20260906114107 | 65 | 23 | 0.9 | 0.9 | 0.00 | 0.00 | 0.00 | 96 | 1016.8 |
| 20260906113606 | 65 | 344 | 0.9 | 0.9 | 0.00 | 0.00 | 0.00 | 96 | 1016.8 |
| 20260906113106 | 65 | 283 | 0.0 | 0.0 | 0.00 | 0.00 | 0.00 | 96 | 1016.6 |
| 20260906112607 | 65 | 360 | 0.0 | 0.0 | 0.00 | 0.00 | 0.00 | 96 | 1016.6 |
| 20260906112106 | 65 | 2 | 0.0 | 0.0 | 0.00 | 0.00 | 0.00 | 96 | 1016.5 |
| 20260906111606 | 65 | 360 | 0.0 | 0.0 | 0.00 | 0.00 | 0.00 | 96 | 1016.5 |
| 20260906111106 | 65 | 100 | 0.0 | 0.0 | 0.00 | 0.00 | 0.00 | 96 | 1016.4 |
| 20260906110608 | 65 | 113 | 0.9 | 0.9 | 0.00 | 0.00 | 0.00 | 96 | 1016.4 |
| 20260906110107 | 65 | 160 | 0.9 | 0.9 | 0.00 | 0.00 | 0.00 | 96 | 1016.3 |
| 20260906105606 | 66 | 65 | 0.0 | 0.9 | 0.00 | 0.00 | 0.00 | 96 | 1016.2 |
| 20260906105106 | 66 | 360 | 0.0 | 0.0 | 0.00 | 0.00 | 0.00 | 96 | 1016.1 |
| 20260906104607 | 66 | 334 | 0.0 | 0.0 | 0.00 | 0.00 | 0.00 | 96 | 1016.0 |
| 20260906104106 | 66 | 15 | 0.9 | 0.9 | 0.00 | 0.00 | 0.00 | 97 | 1016.1 |
| 20260906103607 | 66 | 10 | 0.9 | 1.7 | 0.00 | 0.00 | 0.00 | 97 | 1016.1 |
| 20260906103107 | 66 | 360 | 0.0 | 0.0 | 0.00 | 0.00 | 0.00 | 97 | 1016.1 |
| 20260906102606 | 66 | 360 | 0.0 | 0.0 | 0.00 | 0.00 | 0.00 | 97 | 1016.1 |
| 20260906102107 | 66 | 340 | 0.0 | 0.9 | 0.00 | 0.00 | 0.00 | 97 | 1016.1 |
| 20260906101606 | 66 | 115 | 0.0 | 0.0 | 0.00 | 0.00 | 0.00 | 97 | 1016.1 |
| 20260906101106 | 66 | 360 | 0.0 | 0.0 | 0.00 | 0.00 | 0.00 | 97 | 1016.1 |
| 20260906100606 | 66 | 360 | 0.0 | 0.0 | 0.00 | 0.00 | 0.00 | 97 | 1016.0 |
| 20260906100106 | 66 | 360 | 0.0 | 0.0 | 0.00 | 0.00 | 0.00 | 97 | 1016.0 |
| 20260906095606 | 66 | 360 | 0.0 | 0.0 | 0.00 | 0.00 | 0.00 | 97 | 1016.0 |
| 20260906095106 | 66 | 360 | 0.0 | 0.0 | 0.00 | 0.00 | 0.00 | 97 | 1016.0 |
| 20260906094606 | 65 | 310 | 0.0 | 0.0 | 0.00 | 0.00 | 0.00 | 97 | 1016.0 |
| 20260906094106 | 65 | 160 | 0.0 | 0.9 | 0.00 | 0.00 | 0.00 | 97 | 1015.9 |
| 20260906093606 | 65 | 360 | 0.0 | 0.0 | 0.00 | 0.00 | 0.00 | 97 | 1015.9 |
| 20260906093106 | 65 | 16 | 0.0 | 0.0 | 0.00 | 0.00 | 0.00 | 97 | 1015.9 |
| 20260906092606 | 65 | 9 | 1.7 | 1.7 | 0.00 | 0.00 | 0.00 | 97 | 1015.9 |
| 20260906092107 | 65 | 135 | 1.7 | 1.7 | 0.00 | 0.00 | 0.00 | 97 | 1015.7 |
| 20260906091606 | 65 | 116 | 1.7 | 1.7 | 0.00 | 0.00 | 0.00 | 97 | 1015.8 |
| 20260906091106 | 65 | 134 | 0.9 | 0.9 | 0.00 | 0.00 | 0.00 | 97 | 1015.8 |
| 20260906090607 | 65 | 360 | 0.0 | 0.0 | 0.00 | 0.00 | 0.00 | 97 | 1015.8 |
| 20260906090106 | 65 | 142 | 0.9 | 0.9 | 0.00 | 0.00 | 0.00 | 97 | 1015.7 |
| 20260906085606 | 65 | 325 | 0.9 | 1.7 | 0.00 | 0.00 | 0.00 | 97 | 1015.8 |
| 20260906085106 | 65 | 276 | 0.9 | 0.9 | 0.00 | 0.00 | 0.00 | 97 | 1015.7 |
| 20260906084607 | 65 | 109 | 0.0 | 0.0 | 0.00 | 0.00 | 0.00 | 97 | 1015.7 |
| 20260906084107 | 65 | 308 | 0.0 | 0.9 | 0.00 | 0.00 | 0.00 | 97 | 1015.7 |
| 20260906083606 | 65 | 360 | 0.0 | 0.0 | 0.00 | 0.00 | 0.00 | 97 | 1015.5 |
| 20260906083106 | 65 | 360 | 0.0 | 0.0 | 0.00 | 0.00 | 0.00 | 97 | 1015.5 |
| 20260906082606 | 65 | 207 | 0.9 | 0.9 | 0.00 | 0.00 | 0.00 | 97 | 1015.6 |
| 20260906082107 | 64 | 284 | 0.0 | 0.0 | 0.00 | 0.00 | 0.00 | 97 | 1015.6 |
| 20260906081606 | 64 | 24 | 0.0 | 0.0 | 0.00 | 0.00 | 0.00 | 97 | 1015.6 |
| 20260906081106 | 65 | 360 | 0.0 | 0.0 | 0.00 | 0.00 | 0.00 | 97 | 1015.6 |
| 20260906080606 | 65 | 254 | 0.0 | 0.0 | 0.00 | 0.00 | 0.00 | 96 | 1015.7 |
| 20260906080107 | 65 | 34 | 0.0 | 0.0 | 0.00 | 0.00 | 0.00 | 96 | 1015.7 |
| 20260906075606 | 65 | 321 | 0.0 | 0.9 | 0.00 | 0.00 | 0.00 | 96 | 1015.8 |
| 20260906075106 | 65 | 270 | 0.0 | 0.0 | 0.00 | 0.00 | 0.00 | 96 | 1015.7 |
| 20260906074607 | 65 | 360 | 0.0 | 0.0 | 0.00 | 0.00 | 0.00 | 96 | 1015.7 |
| 20260906074106 | 65 | 159 | 0.0 | 0.9 | 0.00 | 0.00 | 0.00 | 96 | 1015.7 |
| 20260906073608 | 65 | 360 | 0.0 | 0.0 | 0.00 | 0.00 | 0.00 | 96 | 1015.7 |
| 20260906073106 | 65 | 360 | 0.0 | 0.0 | 0.00 | 0.00 | 0.00 | 96 | 1015.8 |
| 20260906072606 | 65 | 300 | 0.9 | 0.9 | 0.00 | 0.00 | 0.00 | 96 | 1015.9 |
| 20260906072106 | 65 | 302 | 0.0 | 0.9 | 0.00 | 0.00 | 0.00 | 96 | 1015.9 |
| 20260906071607 | 65 | 313 | 0.9 | 0.9 | 0.00 | 0.00 | 0.00 | 96 | 1016.0 |
| 20260906071106 | 65 | 360 | 0.0 | 0.0 | 0.00 | 0.00 | 0.00 | 96 | 1016.1 |
| 20260906070607 | 65 | 360 | 0.0 | 0.0 | 0.00 | 0.00 | 0.00 | 96 | 1016.1 |
| 20260906070107 | 65 | 205 | 0.9 | 0.9 | 0.00 | 0.00 | 0.00 | 96 | 1016.0 |
| 20260906065606 | 65 | 360 | 0.0 | 0.0 | 0.00 | 0.00 | 0.00 | 96 | 1015.9 |
| 20260906065106 | 65 | 201 | 0.9 | 0.9 | 0.00 | 0.00 | 0.00 | 96 | 1015.9 |
| 20260906064606 | 65 | 192 | 0.9 | 0.9 | 0.00 | 0.00 | 0.00 | 96 | 1016.0 |
| 20260906064107 | 66 | 265 | 0.9 | 0.9 | 0.00 | 0.00 | 0.00 | 96 | 1016.1 |
| 20260906063607 | 66 | 242 | 0.0 | 0.9 | 0.00 | 0.00 | 0.00 | 96 | 1016.0 |
| 20260906063107 | 66 | 242 | 0.0 | 0.0 | 0.00 | 0.00 | 0.00 | 96 | 1016.0 |
| 20260906062606 | 66 | 157 | 0.0 | 0.9 | 0.00 | 0.00 | 0.00 | 96 | 1015.9 |
| 20260906062107 | 66 | 123 | 0.0 | 0.0 | 0.00 | 0.00 | 0.00 | 96 | 1016.1 |
| 20260906061607 | 66 | 123 | 1.7 | 1.7 | 0.00 | 0.00 | 0.00 | 96 | 1016.1 |
| 20260906061106 | 66 | 107 | 0.0 | 0.9 | 0.00 | 0.00 | 0.00 | 96 | 1016.1 |
| 20260906060120 | 66 | 360 | 0.0 | 0.0 | 0.00 | 0.00 | 0.00 | 96 | 1016.4 |
| 20260906055607 | 66 | 274 | 0.0 | 0.0 | 0.00 | 0.00 | 0.00 | 96 | 1016.5 |
| 20260906055106 | 66 | 326 | 0.0 | 0.9 | 0.00 | 0.00 | 0.00 | 96 | 1016.5 |
| 20260906054607 | 66 | 252 | 0.0 | 0.9 | 0.00 | 0.00 | 0.00 | 96 | 1016.5 |
| 20260906054106 | 66 | 360 | 0.0 | 0.0 | 0.00 | 0.00 | 0.00 | 96 | 1016.5 |
| 20260906053607 | 66 | 360 | 0.0 | 0.0 | 0.00 | 0.00 | 0.00 | 96 | 1016.5 |
| 20260906053106 | 66 | 359 | 0.0 | 0.0 | 0.00 | 0.00 | 0.00 | 96 | 1016.4 |
| 20260906052606 | 66 | 353 | 0.0 | 0.9 | 0.00 | 0.00 | 0.00 | 96 | 1016.4 |
| 20260906052106 | 67 | 347 | 0.0 | 0.0 | 0.00 | 0.00 | 0.00 | 96 | 1016.4 |
| 20260906051606 | 67 | 360 | 0.0 | 0.0 | 0.00 | 0.00 | 0.00 | 95 | 1016.4 |
| 20260906051106 | 67 | 360 | 0.0 | 0.0 | 0.00 | 0.00 | 0.00 | 95 | 1016.5 |
| 20260906050607 | 67 | 360 | 0.0 | 0.0 | 0.00 | 0.00 | 0.00 | 95 | 1016.6 |
| 20260906050106 | 67 | 223 | 0.9 | 1.7 | 0.00 | 0.00 | 0.00 | 95 | 1016.8 |
| 20260906045607 | 67 | 227 | 0.0 | 0.9 | 0.00 | 0.00 | 0.00 | 95 | 1016.6 |
| 20260906045106 | 67 | 233 | 1.7 | 2.6 | 0.00 | 0.00 | 0.00 | 95 | 1016.5 |
| 20260906044606 | 67 | 217 | 1.7 | 1.7 | 0.00 | 0.00 | 0.00 | 95 | 1016.5 |
| 20260906044107 | 67 | 269 | 0.9 | 0.9 | 0.00 | 0.00 | 0.00 | 95 | 1016.5 |
| 20260906043606 | 67 | 240 | 0.9 | 1.7 | 0.00 | 0.00 | 0.00 | 95 | 1016.4 |
| 20260906043107 | 67 | 235 | 0.9 | 1.7 | 0.00 | 0.00 | 0.00 | 95 | 1016.3 |
| 20260906042607 | 67 | 192 | 0.0 | 0.9 | 0.00 | 0.00 | 0.00 | 95 | 1016.2 |
| 20260906042107 | 67 | 357 | 0.0 | 0.0 | 0.00 | 0.00 | 0.00 | 94 | 1016.1 |
| 20260906041606 | 67 | 309 | 0.9 | 0.9 | 0.00 | 0.00 | 0.00 | 94 | 1016.2 |
| 20260906041107 | 67 | 328 | 0.0 | 0.0 | 0.00 | 0.00 | 0.00 | 94 | 1016.3 |
| 20260906040607 | 67 | 310 | 0.0 | 0.0 | 0.00 | 0.00 | 0.00 | 94 | 1016.4 |
| 20260906040106 | 67 | 107 | 0.0 | 0.0 | 0.00 | 0.00 | 0.00 | 94 | 1016.4 |
| 20260906035608 | 68 | 226 | 0.9 | 0.9 | 0.00 | 0.00 | 0.00 | 94 | 1016.5 |
| 20260906035106 | 68 | 360 | 0.0 | 0.0 | 0.00 | 0.00 | 0.00 | 94 | 1016.5 |
| 20260906034606 | 68 | 360 | 0.0 | 0.0 | 0.00 | 0.00 | 0.00 | 94 | 1016.4 |
| 20260906034106 | 68 | 334 | 0.0 | 0.9 | 0.00 | 0.00 | 0.00 | 94 | 1016.5 |
| 20260906033606 | 68 | 42 | 0.0 | 0.9 | 0.00 | 0.00 | 0.00 | 94 | 1016.5 |
| 20260906033106 | 68 | 360 | 0.0 | 0.0 | 0.00 | 0.00 | 0.00 | 93 | 1016.8 |
| 20260906032606 | 68 | 297 | 0.0 | 0.9 | 0.00 | 0.00 | 0.00 | 93 | 1016.9 |
| 20260906032107 | 69 | 261 | 0.0 | 0.0 | 0.00 | 0.00 | 0.00 | 93 | 1016.9 |
| 20260906031606 | 69 | 360 | 0.0 | 0.0 | 0.00 | 0.00 | 0.00 | 93 | 1016.9 |
| 20260906031106 | 69 | 11 | 0.0 | 0.9 | 0.00 | 0.00 | 0.00 | 93 | 1017.0 |
| 20260906030606 | 69 | 360 | 0.0 | 0.0 | 0.00 | 0.00 | 0.00 | 93 | 1017.1 |
| 20260906030106 | 69 | 146 | 0.0 | 0.9 | 0.00 | 0.00 | 0.00 | 93 | 1017.1 |
| 20260906025607 | 69 | 270 | 0.0 | 0.9 | 0.00 | 0.00 | 0.00 | 92 | 1017.2 |
| 20260906025108 | 69 | 162 | 0.0 | 0.9 | 0.00 | 0.00 | 0.00 | 92 | 1017.2 |
| 20260906024606 | 69 | 360 | 0.0 | 0.0 | 0.00 | 0.00 | 0.00 | 92 | 1017.2 |
| 20260906024107 | 70 | 223 | 0.9 | 1.7 | 0.00 | 0.00 | 0.00 | 92 | 1017.3 |
| 20260906023606 | 70 | 270 | 0.0 | 0.0 | 0.00 | 0.00 | 0.00 | 92 | 1017.4 |
| 20260906023106 | 70 | 228 | 0.0 | 0.9 | 0.00 | 0.00 | 0.00 | 92 | 1017.2 |
| 20260906022606 | 70 | 214 | 0.9 | 1.7 | 0.00 | 0.00 | 0.00 | 92 | 1017.2 |
| 20260906022107 | 70 | 225 | 0.9 | 1.7 | 0.00 | 0.00 | 0.00 | 91 | 1017.3 |
| 20260906021607 | 70 | 223 | 0.9 | 1.7 | 0.00 | 0.00 | 0.00 | 91 | 1017.4 |
| 20260906021106 | 70 | 290 | 0.9 | 0.9 | 0.00 | 0.00 | 0.00 | 91 | 1017.3 |
| 20260906020606 | 70 | 233 | 0.9 | 1.7 | 0.00 | 0.00 | 0.00 | 91 | 1017.3 |
| 20260906020106 | 70 | 273 | 0.0 | 0.9 | 0.00 | 0.00 | 0.00 | 91 | 1017.2 |
| 20260906015606 | 70 | 328 | 0.9 | 1.7 | 0.00 | 0.00 | 0.00 | 91 | 1017.2 |
| 20260906015108 | 70 | 312 | 0.9 | 1.7 | 0.00 | 0.00 | 0.00 | 91 | 1017.1 |
| 20260906014607 | 70 | 5 | 0.0 | 0.9 | 0.00 | 0.00 | 0.00 | 91 | 1017.1 |
| 20260906014106 | 70 | 225 | 0.0 | 0.9 | 0.00 | 0.00 | 0.00 | 91 | 1017.1 |
| 20260906013606 | 70 | 229 | 0.0 | 0.9 | 0.00 | 0.00 | 0.00 | 91 | 1017.1 |
| 20260906013107 | 70 | 283 | 0.0 | 0.9 | 0.00 | 0.00 | 0.00 | 91 | 1017.1 |
| 20260906012607 | 70 | 258 | 0.9 | 0.9 | 0.00 | 0.00 | 0.00 | 90 | 1017.0 |
| 20260906012107 | 70 | 252 | 0.9 | 0.9 | 0.00 | 0.00 | 0.00 | 90 | 1016.9 |
| 20260906011607 | 71 | 276 | 1.7 | 1.7 | 0.00 | 0.00 | 0.00 | 90 | 1016.9 |
| 20260906011107 | 71 | 283 | 0.0 | 0.9 | 0.00 | 0.00 | 0.00 | 89 | 1016.6 |
| 20260906010607 | 71 | 239 | 0.0 | 0.9 | 0.00 | 0.00 | 0.00 | 88 | 1016.6 |
| 20260906010106 | 71 | 239 | 0.9 | 0.9 | 0.00 | 0.00 | 0.00 | 88 | 1016.5 |
| 20260906005606 | 71 | 26 | 0.0 | 0.9 | 0.00 | 0.00 | 0.00 | 87 | 1016.5 |
| 20260906005106 | 71 | 268 | 0.0 | 0.9 | 0.00 | 0.00 | 0.00 | 87 | 1016.5 |
| 20260906004606 | 71 | 251 | 0.9 | 1.7 | 0.00 | 0.00 | 0.00 | 87 | 1016.5 |
| 20260906004106 | 72 | 311 | 0.9 | 1.7 | 0.00 | 0.00 | 0.00 | 86 | 1016.5 |
| 20260906003606 | 72 | 276 | 0.0 | 0.0 | 0.00 | 0.00 | 0.00 | 85 | 1016.4 |
| 20260906003106 | 72 | 258 | 0.9 | 0.9 | 0.00 | 0.00 | 0.00 | 84 | 1016.3 |
| 20260906002606 | 72 | 279 | 0.0 | 0.0 | 0.00 | 0.00 | 0.00 | 83 | 1016.2 |
| 20260906002106 | 73 | 360 | 0.0 | 0.0 | 0.00 | 0.00 | 0.00 | 83 | 1016.2 |
| 20260906001607 | 73 | 360 | 0.0 | 0.0 | 0.00 | 0.00 | 0.00 | 82 | 1016.2 |
| 20260906001107 | 73 | 324 | 0.9 | 0.9 | 0.00 | 0.00 | 0.00 | 82 | 1016.4 |
| 20260906000606 | 73 | 277 | 0.9 | 0.9 | 0.00 | 0.00 | 0.00 | 81 | 1016.4 |
| 20260906000107 | 74 | 229 | 0.0 | 0.9 | 0.00 | 0.00 | 0.00 | 80 | 1016.4 |
| 20260905235606 | 75 | 212 | 1.7 | 3.5 | 0.00 | 0.00 | 0.00 | 79 | 1016.4 |
| 20260905235106 | 76 | 217 | 2.6 | 3.5 | 0.00 | 0.00 | 0.00 | 76 | 1016.3 |
| 20260905234607 | 76 | 245 | 0.9 | 1.7 | 0.00 | 0.00 | 0.00 | 72 | 1016.2 |
| 20260905234106 | 77 | 310 | 1.7 | 3.5 | 0.00 | 0.00 | 0.00 | 69 | 1016.2 |
| 20260905233607 | 77 | 256 | 0.9 | 1.7 | 0.00 | 0.00 | 0.00 | 69 | 1016.0 |
| 20260905233107 | 77 | 266 | 0.0 | 0.9 | 0.00 | 0.00 | 0.00 | 68 | 1016.0 |
| 20260905232606 | 78 | 189 | 0.9 | 1.7 | 0.00 | 0.00 | 0.00 | 68 | 1016.0 |
| 20260905232106 | 78 | 44 | 0.9 | 1.7 | 0.00 | 0.00 | 0.00 | 67 | 1016.0 |
| 20260905231606 | 78 | 291 | 0.9 | 1.7 | 0.00 | 0.00 | 0.00 | 65 | 1015.9 |
| 20260905231106 | 79 | 305 | 0.9 | 1.7 | 0.00 | 0.00 | 0.00 | 64 | 1016.0 |
| 20260905230606 | 79 | 244 | 1.7 | 2.6 | 0.00 | 0.00 | 0.00 | 65 | 1016.1 |
| 20260905230108 | 79 | 263 | 2.6 | 3.5 | 0.00 | 0.00 | 0.00 | 64 | 1016.1 |
| 20260905225606 | 80 | 319 | 1.7 | 2.6 | 0.00 | 0.00 | 0.00 | 63 | 1016.1 |
| 20260905225106 | 80 | 284 | 0.9 | 1.7 | 0.00 | 0.00 | 0.00 | 63 | 1016.1 |
| 20260905224606 | 80 | 292 | 1.7 | 1.7 | 0.00 | 0.00 | 0.00 | 62 | 1016.1 |
| 20260905224107 | 80 | 269 | 1.7 | 3.5 | 0.00 | 0.00 | 0.00 | 62 | 1016.0 |
| 20260905223606 | 81 | 253 | 1.7 | 3.5 | 0.00 | 0.00 | 0.00 | 61 | 1016.1 |
| 20260905223106 | 81 | 306 | 1.7 | 1.7 | 0.00 | 0.00 | 0.00 | 60 | 1016.1 |
| 20260905222607 | 82 | 350 | 3.5 | 5.2 | 0.00 | 0.00 | 0.00 | 59 | 1016.2 |
| 20260905222107 | 82 | 305 | 2.6 | 3.5 | 0.00 | 0.00 | 0.00 | 59 | 1016.1 |
| 20260905221606 | 83 | 358 | 2.6 | 3.5 | 0.00 | 0.00 | 0.00 | 58 | 1016.0 |
| 20260905221106 | 83 | 280 | 1.7 | 3.5 | 0.00 | 0.00 | 0.00 | 58 | 1016.0 |
| 20260905220606 | 83 | 264 | 2.6 | 3.5 | 0.00 | 0.00 | 0.00 | 56 | 1015.9 |
| 20260905220106 | 83 | 293 | 3.5 | 5.2 | 0.00 | 0.00 | 0.00 | 56 | 1015.9 |
| 20260905215606 | 83 | 255 | 1.7 | 3.5 | 0.00 | 0.00 | 0.00 | 56 | 1015.9 |
| 20260905215106 | 82 | 317 | 1.7 | 2.6 | 0.00 | 0.00 | 0.00 | 57 | 1015.8 |
| 20260905214606 | 82 | 268 | 1.7 | 2.6 | 0.00 | 0.00 | 0.00 | 57 | 1015.8 |
| 20260905214106 | 82 | 272 | 2.6 | 4.3 | 0.00 | 0.00 | 0.00 | 56 | 1015.7 |
| 20260905213606 | 82 | 230 | 1.7 | 2.6 | 0.00 | 0.00 | 0.00 | 56 | 1015.6 |
| 20260905213107 | 82 | 255 | 1.7 | 3.5 | 0.00 | 0.00 | 0.00 | 56 | 1015.6 |
| 20260905212606 | 82 | 261 | 1.7 | 3.5 | 0.00 | 0.00 | 0.00 | 56 | 1015.6 |
| 20260905212106 | 82 | 282 | 4.3 | 7.0 | 0.00 | 0.00 | 0.00 | 57 | 1015.6 |
| 20260905211607 | 82 | 279 | 2.6 | 5.2 | 0.00 | 0.00 | 0.00 | 55 | 1015.5 |
| 20260905211106 | 82 | 270 | 5.2 | 7.8 | 0.00 | 0.00 | 0.00 | 56 | 1015.5 |
| 20260905210607 | 82 | 305 | 4.3 | 7.0 | 0.00 | 0.00 | 0.00 | 56 | 1015.6 |
| 20260905210106 | 83 | 297 | 2.6 | 4.3 | 0.00 | 0.00 | 0.00 | 57 | 1015.5 |
| 20260905205606 | 83 | 299 | 3.5 | 5.2 | 0.00 | 0.00 | 0.00 | 56 | 1015.5 |
| 20260905205108 | 82 | 302 | 1.7 | 2.6 | 0.00 | 0.00 | 0.00 | 57 | 1015.5 |
| 20260905204607 | 82 | 270 | 3.5 | 6.1 | 0.00 | 0.00 | 0.00 | 57 | 1015.5 |
| 20260905204107 | 82 | 266 | 2.6 | 6.1 | 0.00 | 0.00 | 0.00 | 59 | 1015.5 |
| 20260905203606 | 82 | 343 | 1.7 | 3.5 | 0.00 | 0.00 | 0.00 | 59 | 1015.4 |
| 20260905203106 | 82 | 306 | 3.5 | 6.1 | 0.00 | 0.00 | 0.00 | 58 | 1015.4 |
| 20260905202606 | 81 | 241 | 1.7 | 1.7 | 0.00 | 0.00 | 0.00 | 59 | 1015.4 |
| 20260905202107 | 82 | 268 | 1.7 | 3.5 | 0.00 | 0.00 | 0.00 | 58 | 1015.4 |
| 20260905201606 | 81 | 281 | 2.6 | 5.2 | 0.00 | 0.00 | 0.00 | 58 | 1015.4 |
| 20260905201106 | 81 | 210 | 1.7 | 1.7 | 0.00 | 0.00 | 0.00 | 58 | 1015.4 |
| 20260905200607 | 81 | 359 | 1.7 | 5.2 | 0.00 | 0.00 | 0.00 | 59 | 1015.5 |
| 20260905200107 | 82 | 42 | 1.7 | 3.5 | 0.00 | 0.00 | 0.00 | 57 | 1015.5 |
| 20260905195606 | 81 | 329 | 2.6 | 4.3 | 0.00 | 0.00 | 0.00 | 58 | 1015.6 |
| 20260905195107 | 81 | 327 | 3.5 | 5.2 | 0.00 | 0.00 | 0.00 | 58 | 1015.6 |
| 20260905194607 | 81 | 304 | 3.5 | 11.3 | 0.00 | 0.00 | 0.00 | 57 | 1015.6 |
| 20260905194107 | 81 | 305 | 3.5 | 5.2 | 0.00 | 0.00 | 0.00 | 58 | 1015.7 |
| 20260905193607 | 82 | 291 | 2.6 | 5.2 | 0.00 | 0.00 | 0.00 | 57 | 1015.8 |
| 20260905193106 | 82 | 319 | 3.5 | 5.2 | 0.00 | 0.00 | 0.00 | 58 | 1015.8 |
| 20260905192606 | 81 | 317 | 2.6 | 5.2 | 0.00 | 0.00 | 0.00 | 59 | 1015.8 |
| 20260905192107 | 81 | 275 | 3.5 | 6.1 | 0.00 | 0.00 | 0.00 | 60 | 1015.9 |
| 20260905191612 | 81 | 261 | 4.3 | 7.0 | 0.00 | 0.00 | 0.00 | 59 | 1015.9 |
| 20260905191106 | 81 | 314 | 2.6 | 7.0 | 0.00 | 0.00 | 0.00 | 59 | 1016.0 |
| 20260905190608 | 81 | 299 | 2.6 | 4.3 | 0.00 | 0.00 | 0.00 | 60 | 1016.0 |
| 20260905190106 | 81 | 318 | 4.3 | 7.0 | 0.00 | 0.00 | 0.00 | 60 | 1016.0 |
| 20260905185606 | 81 | 324 | 5.2 | 8.7 | 0.00 | 0.00 | 0.00 | 59 | 1016.2 |
| 20260905185106 | 81 | 280 | 1.7 | 3.5 | 0.00 | 0.00 | 0.00 | 62 | 1016.3 |
| 20260905184608 | 80 | 279 | 2.6 | 4.3 | 0.00 | 0.00 | 0.00 | 63 | 1016.3 |
| 20260905184106 | 80 | 294 | 2.6 | 4.3 | 0.00 | 0.00 | 0.00 | 65 | 1016.4 |
| 20260905183606 | 79 | 266 | 3.5 | 5.2 | 0.00 | 0.00 | 0.00 | 65 | 1016.4 |
| 20260905183106 | 79 | 228 | 3.5 | 5.2 | 0.00 | 0.00 | 0.00 | 64 | 1016.5 |
| 20260905182606 | 78 | 313 | 2.6 | 3.5 | 0.00 | 0.00 | 0.00 | 66 | 1016.6 |
| 20260905182106 | 77 | 276 | 4.3 | 5.2 | 0.00 | 0.00 | 0.00 | 67 | 1016.6 |
| 20260905181606 | 77 | 264 | 2.6 | 4.3 | 0.00 | 0.00 | 0.00 | 68 | 1016.8 |
| 20260905181106 | 77 | 296 | 2.6 | 4.3 | 0.00 | 0.00 | 0.00 | 67 | 1016.6 |
| 20260905180606 | 76 | 313 | 4.3 | 6.1 | 0.00 | 0.00 | 0.00 | 68 | 1016.6 |
| 20260905180108 | 76 | 254 | 3.5 | 5.2 | 0.00 | 0.00 | 0.00 | 68 | 1016.6 |
| 20260905175607 | 76 | 237 | 2.6 | 3.5 | 0.00 | 0.00 | 0.00 | 69 | 1016.8 |
| 20260905175108 | 76 | 256 | 3.5 | 4.3 | 0.00 | 0.00 | 0.00 | 68 | 1016.8 |
| 20260905174606 | 76 | 215 | 3.5 | 5.2 | 0.00 | 0.00 | 0.00 | 69 | 1016.8 |
| 20260905174106 | 76 | 235 | 1.7 | 2.6 | 0.00 | 0.00 | 0.00 | 69 | 1016.9 |
| 20260905173606 | 76 | 267 | 3.5 | 5.2 | 0.00 | 0.00 | 0.00 | 68 | 1016.9 |
| 20260905173108 | 75 | 314 | 3.5 | 5.2 | 0.00 | 0.00 | 0.00 | 70 | 1016.9 |
| 20260905172606 | 75 | 315 | 1.7 | 3.5 | 0.00 | 0.00 | 0.00 | 71 | 1017.0 |
| 20260905172106 | 75 | 317 | 3.5 | 4.3 | 0.00 | 0.00 | 0.00 | 70 | 1017.0 |
| 20260905171607 | 75 | 323 | 1.7 | 3.5 | 0.00 | 0.00 | 0.00 | 72 | 1016.9 |
| 20260905171107 | 74 | 323 | 1.7 | 2.6 | 0.00 | 0.00 | 0.00 | 73 | 1017.0 |
| 20260905170606 | 74 | 303 | 3.5 | 5.2 | 0.00 | 0.00 | 0.00 | 73 | 1017.1 |
| 20260905170106 | 74 | 294 | 0.9 | 2.6 | 0.00 | 0.00 | 0.00 | 78 | 1017.1 |
| 20260905165606 | 73 | 211 | 0.9 | 1.7 | 0.00 | 0.00 | 0.00 | 81 | 1017.4 |
| 20260905165106 | 73 | 304 | 0.9 | 1.7 | 0.00 | 0.00 | 0.00 | 82 | 1017.8 |
| 20260905164607 | 73 | 289 | 0.9 | 1.7 | 0.00 | 0.00 | 0.00 | 83 | 1018.1 |
| 20260905164107 | 73 | 327 | 0.9 | 1.7 | 0.00 | 0.00 | 0.00 | 83 | 1018.3 |
| 20260905163606 | 73 | 292 | 1.7 | 1.7 | 0.00 | 0.00 | 0.00 | 83 | 1018.3 |
| 20260905163106 | 73 | 306 | 0.9 | 1.7 | 0.00 | 0.00 | 0.00 | 83 | 1018.6 |
| 20260905162606 | 73 | 246 | 3.5 | 4.3 | 0.00 | 0.00 | 0.00 | 82 | 1018.7 |
| 20260905162107 | 73 | 282 | 2.6 | 3.5 | 0.00 | 0.00 | 0.00 | 81 | 1019.0 |
| 20260905161607 | 73 | 287 | 2.6 | 5.2 | 0.00 | 0.00 | 0.00 | 82 | 1019.1 |
| 20260905161106 | 74 | 288 | 2.6 | 4.3 | 0.00 | 0.00 | 0.00 | 82 | 1019.4 |
| 20260905160606 | 74 | 297 | 3.5 | 5.2 | 0.00 | 0.00 | 0.00 | 83 | 1019.3 |
| 20260905160106 | 74 | 303 | 1.7 | 1.7 | 0.00 | 0.00 | 0.00 | 85 | 1019.2 |
| 20260905155607 | 74 | 8 | 0.0 | 0.0 | 0.00 | 0.00 | 0.00 | 85 | 1019.2 |
| 20260905155106 | 74 | 259 | 0.9 | 0.9 | 0.00 | 0.00 | 0.00 | 84 | 1019.2 |
| 20260905154606 | 74 | 345 | 0.0 | 0.9 | 0.00 | 0.00 | 0.00 | 85 | 1019.2 |
| 20260905154107 | 74 | 199 | 0.9 | 0.9 | 0.00 | 0.00 | 0.00 | 84 | 1019.1 |
| 20260905153606 | 74 | 293 | 0.9 | 1.7 | 0.00 | 0.00 | 0.00 | 82 | 1019.3 |
| 20260905153106 | 74 | 267 | 1.7 | 1.7 | 0.00 | 0.00 | 0.00 | 83 | 1019.4 |
| 20260905152607 | 74 | 289 | 3.5 | 3.5 | 0.00 | 0.00 | 0.00 | 82 | 1019.4 |
| 20260905152106 | 75 | 299 | 2.6 | 4.3 | 0.00 | 0.00 | 0.00 | 82 | 1019.3 |
| 20260905151607 | 75 | 208 | 1.7 | 2.6 | 0.00 | 0.00 | 0.00 | 81 | 1019.2 |
| 20260905151107 | 75 | 210 | 2.6 | 4.3 | 0.00 | 0.00 | 0.00 | 81 | 1019.1 |
| 20260905150607 | 76 | 199 | 1.7 | 3.5 | 0.00 | 0.00 | 0.00 | 81 | 1019.1 |
| 20260905150107 | 76 | 8 | 0.0 | 1.7 | 0.00 | 0.00 | 0.00 | 81 | 1019.1 |
| 20260905145606 | 77 | 335 | 0.9 | 2.6 | 0.00 | 0.00 | 0.00 | 79 | 1019.0 |
| 20260905145106 | 79 | 305 | 4.3 | 10.4 | 0.00 | 0.00 | 0.00 | 77 | 1018.8 |
| 20260905144607 | 80 | 326 | 2.6 | 4.3 | 0.00 | 0.00 | 0.00 | 74 | 1018.4 |
| 20260905144107 | 79 | 285 | 0.9 | 1.7 | 0.00 | 0.00 | 0.00 | 75 | 1017.9 |
| 20260905143607 | 79 | 317 | 0.9 | 1.7 | 0.00 | 0.00 | 0.00 | 75 | 1017.8 |
| 20260905143107 | 78 | 350 | 1.7 | 3.5 | 0.00 | 0.00 | 0.00 | 76 | 1017.7 |
| 20260905142607 | 78 | 307 | 3.5 | 5.2 | 0.00 | 0.00 | 0.00 | 77 | 1017.7 |
| 20260905142106 | 78 | 232 | 1.7 | 3.5 | 0.00 | 0.00 | 0.00 | 78 | 1017.7 |
| 20260905141607 | 78 | 196 | 1.7 | 3.5 | 0.00 | 0.00 | 0.00 | 78 | 1017.8 |
| 20260905141106 | 77 | 288 | 1.7 | 3.5 | 0.00 | 0.00 | 0.00 | 78 | 1017.9 |
| 20260905140607 | 77 | 284 | 2.6 | 4.3 | 0.00 | 0.00 | 0.00 | 80 | 1017.9 |
| 20260905140106 | 77 | 272 | 2.6 | 4.3 | 0.00 | 0.00 | 0.00 | 79 | 1018.0 |
| 20260905135606 | 77 | 287 | 1.7 | 3.5 | 0.00 | 0.00 | 0.00 | 80 | 1018.0 |
| 20260905135108 | 77 | 219 | 2.6 | 4.3 | 0.00 | 0.00 | 0.00 | 79 | 1018.0 |
| 20260905134606 | 76 | 258 | 1.7 | 2.6 | 0.00 | 0.00 | 0.00 | 80 | 1018.0 |
| 20260905134106 | 76 | 265 | 3.5 | 6.1 | 0.00 | 0.00 | 0.00 | 81 | 1018.0 |
| 20260905133607 | 75 | 237 | 2.6 | 4.3 | 0.00 | 0.00 | 0.00 | 82 | 1018.0 |
| 20260905133107 | 74 | 238 | 2.6 | 3.5 | 0.00 | 0.00 | 0.00 | 85 | 1018.0 |
| 20260905132606 | 73 | 250 | 0.9 | 1.7 | 0.00 | 0.00 | 0.00 | 90 | 1018.0 |
| 20260905132106 | 72 | 295 | 0.0 | 0.9 | 0.00 | 0.00 | 0.00 | 94 | 1018.0 |
| 20260905131606 | 71 | 54 | 0.9 | 1.7 | 0.00 | 0.00 | 0.00 | 96 | 1017.9 |
| 20260905131106 | 70 | 360 | 0.0 | 0.0 | 0.00 | 0.00 | 0.00 | 96 | 1017.9 |
| 20260905130608 | 69 | 118 | 0.0 | 0.9 | 0.00 | 0.00 | 0.00 | 97 | 1018.0 |
| 20260905130107 | 69 | 360 | 0.0 | 0.0 | 0.00 | 0.00 | 0.00 | 97 | 1018.1 |
| 20260905125607 | 68 | 36 | 0.9 | 0.9 | 0.00 | 0.00 | 0.00 | 97 | 1018.1 |
| 20260905125106 | 68 | 358 | 1.7 | 1.7 | 0.00 | 0.00 | 0.00 | 97 | 1018.1 |
| 20260905124607 | 67 | 46 | 0.0 | 0.0 | 0.00 | 0.00 | 0.00 | 97 | 1018.1 |
| 20260905124107 | 67 | 360 | 0.0 | 0.0 | 0.00 | 0.00 | 0.00 | 97 | 1018.3 |
| 20260905123608 | 67 | 194 | 0.0 | 0.0 | 0.00 | 0.00 | 0.00 | 97 | 1018.3 |
| 20260905123106 | 66 | 326 | 0.0 | 0.9 | 0.00 | 0.00 | 0.00 | 97 | 1018.1 |
| 20260905122606 | 66 | 360 | 0.0 | 0.0 | 0.00 | 0.00 | 0.00 | 97 | 1018.0 |
| 20260905122106 | 65 | 360 | 0.0 | 0.0 | 0.00 | 0.00 | 0.00 | 97 | 1018.0 |
| 20260905121607 | 65 | 203 | 0.0 | 0.9 | 0.00 | 0.00 | 0.00 | 97 | 1017.9 |
| 20260905121106 | 65 | 360 | 0.0 | 0.0 | 0.00 | 0.00 | 0.00 | 97 | 1017.9 |
| 20260905120607 | 65 | 360 | 0.0 | 0.0 | 0.00 | 0.00 | 0.00 | 97 | 1017.9 |
| 20260905120107 | 64 | 360 | 0.0 | 0.0 | 0.00 | 0.00 | 0.00 | 97 | 1017.9 |
| 20260905115606 | 64 | 3 | 0.0 | 1.7 | 0.00 | 0.00 | 0.00 | 97 | 1017.9 |
| 20260905115106 | 64 | 1 | 0.9 | 0.9 | 0.00 | 0.00 | 0.00 | 97 | 1017.9 |
| 20260905114606 | 64 | 360 | 0.0 | 0.0 | 0.00 | 0.00 | 0.00 | 97 | 1017.9 |